Time;durP1;ratioP1;P1;durP2;ratioP2;P2;SDS_P1;SDS_P2;PMS_P1;PMS_P2;Temp;Humidity;BMP_temperature;BMP_pressure;BME280_temperature;BME280_humidity;BME280_pressure;Samples;Min_cycle;Max_cycle;Signal;HPM_P1;HPM_P2
2022/09/03 00:03:43;;;;;;;2.58;1.90;;;20.90;68.50;;;;;;10529651;28;20069;-63
2022/09/03 00:09:14;;;;;;;1.90;1.80;;;20.90;68.70;;;;;;10510551;28;20028;-63
2022/09/03 00:14:39;;;;;;;2.88;2.10;;;20.80;68.50;;;;;;10526717;28;20512;-63
2022/09/03 00:20:15;;;;;;;5.05;2.17;;;20.80;68.60;;;;;;10524379;28;20039;-64
2022/09/03 00:25:41;;;;;;;2.67;1.80;;;20.80;68.60;;;;;;10522108;28;20040;-63
2022/09/03 00:31:41;;;;;;;2.85;1.80;;;20.80;68.60;;;;;;10524194;28;20032;-62
2022/09/03 00:37:02;;;;;;;3.28;1.70;;;20.70;68.40;;;;;;10490270;28;20506;-63
2022/09/03 00:42:24;;;;;;;4.10;2.08;;;20.70;68.50;;;;;;10522087;28;20627;-63
2022/09/03 00:48:01;;;;;;;2.85;1.83;;;20.70;68.50;;;;;;10524505;28;20552;-64
2022/09/03 00:53:50;;;;;;;1.98;1.60;;;20.60;68.30;;;;;;10510953;28;20438;-62
2022/09/03 00:59:24;;;;;;;2.03;1.83;;;20.60;68.40;;;;;;10522233;28;20044;-63
2022/09/03 01:05:01;;;;;;;2.17;1.98;;;20.50;68.30;;;;;;10524809;28;20297;-63
2022/09/03 01:10:33;;;;;;;3.00;2.00;;;20.50;68.40;;;;;;10522045;28;20028;-63
2022/09/03 01:16:18;;;;;;;1.77;1.67;;;20.50;68.40;;;;;;10523229;28;20036;-62
2022/09/03 01:21:47;;;;;;;2.38;1.60;;;20.40;68.20;;;;;;10518437;28;20138;-64
2022/09/03 01:27:29;;;;;;;1.63;1.52;;;20.40;68.40;;;;;;10518411;28;20123;-63
2022/09/03 01:32:56;;;;;;;1.95;1.70;;;20.40;68.40;;;;;;10483867;28;20055;-63
2022/09/03 01:38:15;;;;;;;1.65;1.52;;;20.40;68.30;;;;;;10507784;28;20032;-63
2022/09/03 01:43:49;;;;;;;1.58;1.48;;;20.30;68.30;;;;;;10521268;28;20488;-63
2022/09/03 01:49:33;;;;;;;1.95;1.42;;;20.30;68.20;;;;;;10530603;28;20028;-64
2022/09/03 01:55:42;;;;;;;2.33;1.40;;;20.30;68.20;;;;;;10529987;28;20024;-63
2022/09/03 02:01:08;;;;;;;2.55;1.58;;;20.30;68.20;;;;;;10507355;28;20051;-63
2022/09/03 02:06:32;;;;;;;2.22;1.70;;;20.20;68.10;;;;;;10531717;28;20024;-63
2022/09/03 02:12:19;;;;;;;1.55;1.45;;;20.20;68.20;;;;;;10530366;28;20123;-63
2022/09/03 02:17:41;;;;;;;1.55;1.45;;;20.20;68.10;;;;;;10523185;28;20035;-64
2022/09/03 02:23:01;;;;;;;1.67;1.40;;;20.20;68.10;;;;;;10528257;28;20381;-63
2022/09/03 02:28:22;;;;;;;1.80;1.30;;;20.20;68.10;;;;;;10526931;28;20118;-64
2022/09/03 02:33:44;;;;;;;3.55;1.23;;;20.10;68.10;;;;;;10530055;28;20118;-63
2022/09/03 02:39:04;;;;;;;1.75;1.27;;;20.10;68.10;;;;;;10526828;28;20048;-63
2022/09/03 02:44:32;;;;;;;1.45;1.35;;;20.10;68.10;;;;;;10525518;28;20016;-63
2022/09/03 02:49:51;;;;;;;;;;;20.10;68.00;;;;;;10529356;28;20043;-63
2022/09/03 02:55:11;;;;;;;3.13;2.45;;;20.00;68.00;;;;;;10526958;28;19931;-64
2022/09/03 03:00:30;;;;;;;3.05;1.40;;;20.00;68.00;;;;;;10526567;28;20122;-63
2022/09/03 03:05:55;;;;;;;1.00;1.00;;;20.00;68.00;;;;;;10523867;28;20114;-62
2022/09/03 03:11:17;;;;;;;1.27;1.17;;;19.90;67.90;;;;;;10528447;28;20040;-64
2022/09/03 03:16:36;;;;;;;1.30;1.20;;;20.00;68.00;;;;;;10527210;28;20043;-63
2022/09/03 03:21:55;;;;;;;1.40;1.30;;;19.90;67.90;;;;;;10526120;28;20783;-63
2022/09/03 03:27:15;;;;;;;1.40;1.00;;;19.90;67.90;;;;;;10522560;28;20060;-63
2022/09/03 03:32:35;;;;;;;2.28;0.95;;;19.90;68.00;;;;;;10521236;28;20145;-64
2022/09/03 03:37:57;;;;;;;2.28;1.30;;;19.80;67.90;;;;;;10528632;28;20038;-63
2022/09/03 03:43:17;;;;;;;1.70;1.20;;;19.80;68.00;;;;;;10518299;28;20115;-63
2022/09/03 03:48:37;;;;;;;1.30;1.20;;;19.80;68.00;;;;;;10525166;28;20122;-62
2022/09/03 03:53:57;;;;;;;1.23;1.00;;;19.80;68.00;;;;;;10528590;28;20035;-63
2022/09/03 03:59:17;;;;;;;0.90;0.90;;;19.80;68.00;;;;;;10518225;28;20098;-63
2022/09/03 04:04:36;;;;;;;1.42;1.10;;;19.80;68.00;;;;;;10506462;28;20028;-63
2022/09/03 04:09:55;;;;;;;1.50;1.15;;;19.70;68.00;;;;;;10524868;28;20127;-64
2022/09/03 04:15:14;;;;;;;1.27;0.90;;;19.70;68.00;;;;;;10526137;28;20500;-63
2022/09/03 04:20:37;;;;;;;1.33;1.08;;;19.70;68.00;;;;;;10525075;28;20036;-63
2022/09/03 04:25:57;;;;;;;1.35;0.82;;;19.70;68.00;;;;;;10519702;28;20052;-64
2022/09/03 04:31:19;;;;;;;0.90;0.90;;;19.70;68.00;;;;;;10525141;28;20040;-64
2022/09/03 04:36:38;;;;;;;2.03;0.90;;;19.60;68.00;;;;;;10522113;28;20039;-63
2022/09/03 04:41:57;;;;;;;1.60;1.13;;;19.60;68.00;;;;;;10525854;28;20172;-63
2022/09/03 04:47:17;;;;;;;1.00;0.90;;;19.60;68.00;;;;;;10519558;28;20032;-63
2022/09/03 04:52:37;;;;;;;3.38;0.85;;;19.60;68.00;;;;;;10524362;28;20472;-63
2022/09/03 04:57:57;;;;;;;2.22;1.00;;;19.50;67.90;;;;;;10524733;28;20051;-63
2022/09/03 05:03:16;;;;;;;0.98;0.90;;;19.50;67.90;;;;;;10518246;28;20499;-63
2022/09/03 05:08:36;;;;;;;1.00;0.90;;;19.50;67.90;;;;;;10524399;28;20489;-63
2022/09/03 05:13:57;;;;;;;0.77;0.75;;;19.50;67.90;;;;;;10524574;28;20024;-64
2022/09/03 05:19:16;;;;;;;1.85;0.88;;;19.40;67.80;;;;;;10530658;28;20484;-63
2022/09/03 05:24:35;;;;;;;1.08;0.93;;;19.40;67.80;;;;;;10445241;28;20400;-63
2022/09/03 05:29:55;;;;;;;1.40;1.08;;;19.40;67.80;;;;;;10434220;28;20439;-63
2022/09/03 05:35:14;;;;;;;0.98;0.77;;;19.40;67.80;;;;;;10436194;28;20499;-63
2022/09/03 05:40:35;;;;;;;2.15;0.90;;;19.30;67.80;;;;;;10433637;28;21186;-63
2022/09/03 05:45:59;;;;;;;1.02;0.93;;;19.30;67.90;;;;;;10438322;28;20564;-63
2022/09/03 05:51:19;;;;;;;1.90;1.17;;;19.30;67.90;;;;;;10440874;28;20047;-63
2022/09/03 05:56:38;;;;;;;0.90;0.80;;;19.30;67.90;;;;;;10440209;28;20040;-62
2022/09/03 06:01:58;;;;;;;1.15;0.90;;;19.30;67.90;;;;;;10434983;28;20079;-64
2022/09/03 06:07:18;;;;;;;1.15;0.80;;;19.30;67.90;;;;;;10443024;28;20477;-63
2022/09/03 06:12:37;;;;;;;0.93;0.85;;;19.20;67.80;;;;;;10440827;28;20032;-63
2022/09/03 06:17:57;;;;;;;0.77;0.77;;;19.20;67.80;;;;;;10430727;28;20548;-63
2022/09/03 06:23:17;;;;;;;3.50;0.93;;;19.20;67.90;;;;;;10437965;28;20576;-63
2022/09/03 06:28:40;;;;;;;0.90;0.90;;;19.20;67.80;;;;;;10450106;28;20060;-63
2022/09/03 06:33:59;;;;;;;1.63;1.00;;;19.20;67.90;;;;;;10449477;28;20146;-63
2022/09/03 06:39:19;;;;;;;0.80;0.80;;;19.20;67.90;;;;;;10441219;28;20332;-63
2022/09/03 06:44:38;;;;;;;1.13;1.00;;;19.20;67.90;;;;;;10448588;28;20056;-63
2022/09/03 06:49:58;;;;;;;2.08;1.00;;;19.20;68.00;;;;;;10444279;28;20032;-63
2022/09/03 06:55:18;;;;;;;0.98;0.80;;;19.20;68.10;;;;;;10429955;28;20032;-64
2022/09/03 07:00:37;;;;;;;1.10;1.00;;;19.30;68.20;;;;;;10447357;28;20052;-62
2022/09/03 07:06:04;;;;;;;1.92;0.90;;;19.30;68.30;;;;;;10445375;28;20067;-63
2022/09/03 07:11:26;;;;;;;1.00;0.90;;;19.30;68.50;;;;;;10443787;28;20505;-63
2022/09/03 07:16:47;;;;;;;0.65;0.65;;;19.30;68.50;;;;;;10443187;28;20090;-63
2022/09/03 07:22:08;;;;;;;1.40;1.00;;;19.40;68.50;;;;;;10443273;28;20523;-63
2022/09/03 07:27:28;;;;;;;1.00;0.90;;;19.50;68.50;;;;;;10427977;28;20488;-64
2022/09/03 07:32:50;;;;;;;1.50;0.88;;;19.50;68.40;;;;;;10438238;28;20037;-63
2022/09/03 07:38:10;;;;;;;1.73;0.90;;;19.50;68.40;;;;;;10431574;28;20040;-63
2022/09/03 07:43:35;;;;;;;1.88;1.00;;;19.60;68.40;;;;;;10420944;28;20309;-63
2022/09/03 07:48:57;;;;;;;2.00;0.90;;;19.60;68.40;;;;;;10436297;28;20028;-63
2022/09/03 07:54:16;;;;;;;0.90;0.70;;;19.70;68.40;;;;;;10436692;28;20135;-63
2022/09/03 07:59:36;;;;;;;1.17;0.80;;;19.70;68.40;;;;;;10445171;28;20095;-64
2022/09/03 08:05:20;;;;;;;1.48;0.80;;;19.70;68.40;;;;;;10405724;28;20584;-62
2022/09/03 08:10:40;;;;;;;1.98;1.05;;;19.70;68.50;;;;;;10402466;28;20044;-64
2022/09/03 08:16:00;;;;;;;1.88;1.00;;;19.80;68.70;;;;;;10393173;28;20523;-64
2022/09/03 08:21:21;;;;;;;1.60;1.10;;;19.80;68.80;;;;;;10377414;28;20040;-65
2022/09/03 08:26:41;;;;;;;0.80;0.80;;;19.80;69.00;;;;;;10383812;28;20057;-64
2022/09/03 08:32:02;;;;;;;0.88;0.88;;;19.80;69.00;;;;;;10392073;28;20033;-67
2022/09/03 08:37:26;;;;;;;1.30;0.95;;;19.80;69.00;;;;;;10383891;28;20136;-64
2022/09/03 08:43:07;;;;;;;1.35;1.20;;;19.90;69.10;;;;;;10373970;28;20657;-64
2022/09/03 08:48:27;;;;;;;1.42;0.90;;;19.90;69.70;;;;;;10383850;28;20132;-64
2022/09/03 08:53:53;;;;;;;1.25;0.75;;;19.90;69.10;;;;;;10373385;28;20430;-64
2022/09/03 08:59:13;;;;;;;2.35;1.00;;;19.90;69.30;;;;;;10380847;28;20048;-65
2022/09/03 09:04:35;;;;;;;1.08;0.85;;;20.00;69.30;;;;;;10396784;28;20095;-66
2022/09/03 09:10:17;;;;;;;1.10;1.00;;;20.00;69.30;;;;;;10396743;28;20029;-64
2022/09/03 09:16:16;;;;;;;1.92;1.50;;;20.00;69.60;;;;;;10363116;28;20041;-65
2022/09/03 09:21:45;;;;;;;2.45;1.38;;;20.00;69.00;;;;;;10352294;28;20052;-65
2022/09/03 09:27:05;;;;;;;1.33;1.00;;;20.00;68.90;;;;;;10364265;28;20435;-64
2022/09/03 09:32:24;;;;;;;1.58;1.20;;;20.10;69.10;;;;;;10359022;28;20469;-65
2022/09/03 09:37:53;;;;;;;1.48;1.38;;;20.20;68.90;;;;;;10364499;28;20033;-65
2022/09/03 09:48:36;;;;;;;1.92;1.25;;;20.50;68.80;;;;;;10442323;27;2113454;-61
2022/09/03 09:54:03;;;;;;;1.98;1.20;;;20.60;68.80;;;;;;10470638;28;20039;-61
2022/09/03 09:59:23;;;;;;;2.23;1.37;;;20.80;68.90;;;;;;10467786;28;20028;-66
2022/09/03 10:04:45;;;;;;;1.33;1.10;;;20.90;68.20;;;;;;10474649;28;20043;-66
2022/09/03 10:10:14;;;;;;;2.95;1.30;;;20.90;68.20;;;;;;10472536;28;20665;-62
2022/09/03 10:15:48;;;;;;;4.50;1.30;;;21.00;68.10;;;;;;10462561;28;20027;-65
2022/09/03 10:21:11;;;;;;;6.40;1.38;;;21.20;68.30;;;;;;10453837;28;20040;-60
2022/09/03 10:26:31;;;;;;;3.35;1.38;;;21.30;67.90;;;;;;10470223;28;20326;-61
2022/09/03 10:31:56;;;;;;;7.93;3.15;;;21.40;67.70;;;;;;10464559;28;20028;-62
2022/09/03 10:37:15;;;;;;;2.17;1.10;;;21.60;67.50;;;;;;10466021;28;20891;-61
2022/09/03 10:42:59;;;;;;;2.58;1.10;;;21.80;67.70;;;;;;10465100;28;20032;-61
2022/09/03 10:48:26;;;;;;;3.65;1.33;;;21.90;67.30;;;;;;10464222;28;20047;-63
2022/09/03 10:54:04;;;;;;;2.08;1.35;;;22.10;66.20;;;;;;10473147;28;20035;-61
2022/09/03 10:59:46;;;;;;;2.50;1.15;;;22.30;66.00;;;;;;10448087;28;20119;-61
2022/09/03 11:05:15;;;;;;;4.85;1.20;;;22.30;65.30;;;;;;10439553;28;20407;-61
2022/09/03 11:10:45;;;;;;;1.17;1.08;;;22.50;65.20;;;;;;10451940;28;20036;-62
2022/09/03 11:16:17;;;;;;;1.10;1.00;;;22.60;64.50;;;;;;10442170;28;20051;-61
2022/09/03 11:21:38;;;;;;;1.92;1.20;;;22.70;63.80;;;;;;10443386;28;20037;-62
2022/09/03 11:27:19;;;;;;;4.35;1.20;;;22.80;63.50;;;;;;10430428;28;20304;-61
2022/09/03 11:32:55;;;;;;;4.30;1.33;;;22.90;63.10;;;;;;10442075;28;20037;-63
2022/09/03 11:38:19;;;;;;;3.15;1.42;;;23.10;62.80;;;;;;10439754;28;20024;-62
2022/09/03 11:43:38;;;;;;;2.65;1.33;;;23.10;62.50;;;;;;10445154;28;20336;-60
2022/09/03 11:49:12;;;;;;;1.75;1.23;;;23.30;62.60;;;;;;10442586;28;21475;-61
2022/09/03 11:54:45;;;;;;;1.98;1.33;;;23.40;61.60;;;;;;10429003;28;20032;-62
2022/09/03 12:00:14;;;;;;;3.13;1.30;;;23.50;62.20;;;;;;10443883;28;20036;-61
2022/09/03 12:06:09;;;;;;;2.88;1.08;;;23.70;61.50;;;;;;10442990;28;20575;-63
2022/09/03 12:11:50;;;;;;;1.83;1.20;;;23.70;60.90;;;;;;10320629;28;20276;-65
2022/09/03 12:17:25;;;;;;;1.85;1.30;;;23.80;59.20;;;;;;10431351;28;20454;-63
2022/09/03 12:22:45;;;;;;;2.47;1.27;;;23.90;60.60;;;;;;10432812;28;20054;-63
2022/09/03 12:28:11;;;;;;;2.45;1.17;;;24.00;61.00;;;;;;10437967;28;20048;-66
2022/09/03 12:33:31;;;;;;;1.75;1.20;;;24.10;60.00;;;;;;10442106;28;20411;-62
2022/09/03 12:38:51;;;;;;;1.27;1.17;;;24.20;59.80;;;;;;10432279;28;20551;-61
2022/09/03 12:44:11;;;;;;;3.42;1.30;;;24.20;59.90;;;;;;10438527;28;20052;-61
2022/09/03 12:49:40;;;;;;;2.13;1.35;;;24.40;60.10;;;;;;10427924;28;20044;-62
2022/09/03 12:55:05;;;;;;;1.83;1.10;;;24.50;60.00;;;;;;10443064;28;20455;-64
2022/09/03 13:00:27;;;;;;;1.42;1.20;;;24.50;59.80;;;;;;10432018;28;20040;-64
2022/09/03 13:05:54;;;;;;;7.50;1.20;;;24.60;59.60;;;;;;10430331;28;20474;-63
2022/09/03 13:11:20;;;;;;;5.87;1.20;;;24.70;59.60;;;;;;10417101;28;20032;-63
2022/09/03 13:16:45;;;;;;;1.67;1.15;;;24.80;59.60;;;;;;10428459;28;20035;-63
2022/09/03 13:22:23;;;;;;;1.65;1.10;;;24.90;59.30;;;;;;10432332;28;20028;-64
2022/09/03 13:28:12;;;;;;;1.38;1.10;;;25.10;59.30;;;;;;10437783;28;20044;-63
2022/09/03 13:33:44;;;;;;;2.00;1.00;;;25.30;58.90;;;;;;10450769;28;20028;-64
2022/09/03 13:39:26;;;;;;;2.85;1.17;;;25.30;58.70;;;;;;10438061;28;20438;-63
2022/09/03 13:44:53;;;;;;;2.17;1.30;;;25.60;59.10;;;;;;10438157;28;20541;-61
2022/09/03 13:50:25;;;;;;;2.35;1.20;;;25.70;58.80;;;;;;10438692;28;20548;-62
2022/09/03 13:55:52;;;;;;;3.35;1.30;;;25.80;58.20;;;;;;10443004;28;20555;-64
2022/09/03 14:01:38;;;;;;;1.45;1.17;;;25.90;58.30;;;;;;10440646;28;20445;-63
2022/09/03 14:07:05;;;;;;;3.80;1.30;;;26.00;57.90;;;;;;10439582;28;20044;-63
2022/09/03 14:12:41;;;;;;;2.28;1.23;;;26.20;58.40;;;;;;10438665;28;20524;-62
2022/09/03 14:18:38;;;;;;;1.80;1.10;;;26.30;56.60;;;;;;10434000;28;20554;-62
2022/09/03 14:24:34;;;;;;;1.23;1.02;;;26.40;57.20;;;;;;10435607;28;21374;-64
2022/09/03 14:30:06;;;;;;;2.90;1.05;;;26.50;56.90;;;;;;10423273;28;20335;-64
2022/09/03 14:36:19;;;;;;;2.60;1.58;;;26.40;57.40;;;;;;10455599;28;20044;-65
2022/09/03 14:42:30;;;;;;;2.15;1.10;;;26.40;57.70;;;;;;10328712;28;20056;-64
2022/09/03 14:48:10;;;;;;;1.77;1.23;;;26.60;57.10;;;;;;10371491;28;20044;-64
2022/09/03 14:53:58;;;;;;;2.22;1.30;;;26.70;57.90;;;;;;10366678;28;20044;-63
2022/09/03 14:59:30;;;;;;;1.45;1.35;;;26.80;56.40;;;;;;10412243;28;20028;-64
2022/09/03 15:05:08;;;;;;;1.15;1.00;;;26.50;57.50;;;;;;10418791;28;20040;-64
2022/09/03 15:10:38;;;;;;;3.08;1.20;;;26.00;57.40;;;;;;10407113;28;20027;-64
2022/09/03 15:16:16;;;;;;;2.33;1.40;;;25.80;57.40;;;;;;10401729;28;20028;-64
2022/09/03 15:21:46;;;;;;;1.70;1.15;;;26.00;57.90;;;;;;10400612;28;20130;-63
2022/09/03 15:33:33;;;;;;;2.50;1.40;;;26.20;56.70;;;;;;10406407;28;20143;-64
2022/09/03 15:39:02;;;;;;;2.97;1.63;;;26.00;57.20;;;;;;10411210;28;20021;-63
2022/09/03 15:44:24;;;;;;;1.92;1.70;;;25.70;57.20;;;;;;10405518;28;20044;-63
2022/09/03 15:49:46;;;;;;;3.10;1.60;;;25.50;58.40;;;;;;10445849;28;20385;-63
2022/09/03 15:55:35;;;;;;;2.63;1.90;;;25.20;58.50;;;;;;10447444;28;20027;-62
2022/09/03 16:01:20;;;;;;;2.25;1.98;;;24.90;58.50;;;;;;10423008;28;20036;-62
2022/09/03 16:07:12;;;;;;;;;;;;;;;;;;;;;
2022/09/03 16:13:21;;;;;;;8.07;3.75;;;24.60;59.20;;;;;;10444678;28;20028;-62
2022/09/03 16:19:04;;;;;;;4.82;2.60;;;24.50;59.70;;;;;;10423567;28;20553;-62
2022/09/03 16:24:50;;;;;;;4.03;1.60;;;24.50;60.40;;;;;;10425070;28;20028;-61
2022/09/03 16:30:13;;;;;;;4.15;1.88;;;24.40;60.30;;;;;;10439297;28;20566;-62
2022/09/03 16:36:16;;;;;;;2.22;1.60;;;24.40;60.20;;;;;;10443178;28;20032;-61
2022/09/03 16:42:06;;;;;;;2.15;1.52;;;24.30;60.70;;;;;;10442488;28;20894;-62
2022/09/03 16:47:47;;;;;;;5.88;3.28;;;24.30;60.40;;;;;;10443684;28;20056;-62
2022/09/03 16:53:14;;;;;;;3.42;2.05;;;24.20;60.30;;;;;;10436732;22;20053;-62
2022/09/03 16:58:42;;;;;;;4.97;1.60;;;24.20;60.30;;;;;;10344035;28;20081;-62
2022/09/03 17:04:59;;;;;;;3.47;1.50;;;24.10;60.20;;;;;;10358551;28;20434;-63
2022/09/03 17:10:47;;;;;;;2.85;1.40;;;24.10;59.80;;;;;;10223066;28;20543;-64
2022/09/03 17:16:25;;;;;;;2.65;1.40;;;24.00;60.50;;;;;;10359980;28;20052;-64
2022/09/03 17:22:41;;;;;;;;;;;;;;;;;;;;;
2022/09/03 17:48:25;;;;;;;2.78;1.50;;;23.70;62.80;;;;;;10619778;22;20662;-65
2022/09/03 18:01:19;;;;;;;2.53;1.90;;;23.50;64.70;;;;;;10328029;22;21068;-66
2022/09/03 18:06:57;;;;;;;2.05;1.85;;;23.30;64.30;;;;;;10227423;28;20936;-64
2022/09/03 20:11:29;;;;;;;2.75;2.10;;;23.20;65.90;;;;;;10479002;28;20032;-69
2022/09/03 20:17:09;;;;;;;2.75;1.90;;;23.10;66.00;;;;;;10486466;28;20107;-63
2022/09/03 20:22:31;;;;;;;2.58;2.00;;;23.10;66.10;;;;;;10479569;28;20596;-63
2022/09/03 20:28:28;;;;;;;2.42;1.83;;;23.10;66.10;;;;;;10477862;28;20119;-63
2022/09/03 20:34:23;;;;;;;2.13;1.80;;;23.00;66.10;;;;;;10442232;28;20616;-63
2022/09/03 20:39:55;;;;;;;3.28;1.65;;;23.00;66.20;;;;;;10453250;28;20611;-62
2022/09/03 20:45:25;;;;;;;1.50;1.40;;;22.90;66.20;;;;;;10465391;28;20127;-64
2022/09/03 20:51:03;;;;;;;1.77;1.45;;;22.90;66.20;;;;;;10479054;28;20701;-67
2022/09/03 20:56:29;;;;;;;1.70;1.60;;;22.90;66.30;;;;;;10477810;28;20501;-63
2022/09/03 21:02:17;;;;;;;2.08;1.88;;;22.90;66.40;;;;;;10484681;28;20031;-63
2022/09/03 21:08:11;;;;;;;1.80;1.63;;;22.80;66.40;;;;;;10473171;28;20033;-64
2022/09/03 21:13:44;;;;;;;2.08;1.88;;;22.70;66.50;;;;;;10479843;28;20036;-63
2022/09/03 21:19:10;;;;;;;1.65;1.55;;;22.70;66.40;;;;;;10475126;28;20036;-63
2022/09/03 21:24:35;;;;;;;1.92;1.70;;;22.70;66.40;;;;;;10485840;28;20129;-65
2022/09/03 21:30:07;;;;;;;1.85;1.50;;;22.60;66.50;;;;;;10483586;28;20128;-64
2022/09/03 21:35:59;;;;;;;2.35;1.70;;;22.60;66.50;;;;;;10482386;22;20060;-63
2022/09/03 21:41:36;;;;;;;2.17;1.75;;;22.60;66.50;;;;;;10461643;28;20288;-63
2022/09/03 21:47:04;;;;;;;1.98;1.52;;;22.50;66.50;;;;;;10462749;28;22234;-62
2022/09/03 21:52:47;;;;;;;1.92;1.42;;;22.50;66.60;;;;;;10464270;28;20400;-63
2022/09/03 21:58:26;;;;;;;1.50;1.40;;;22.50;66.80;;;;;;10434089;28;20136;-63
2022/09/03 22:03:45;;;;;;;1.73;1.45;;;22.40;66.60;;;;;;10455300;28;20085;-63
2022/09/03 22:09:17;;;;;;;1.90;1.70;;;22.40;66.60;;;;;;10456533;28;20036;-63
2022/09/03 22:14:46;;;;;;;2.08;1.60;;;22.40;66.70;;;;;;10462501;28;20025;-62
2022/09/03 22:20:06;;;;;;;1.70;1.60;;;22.30;66.70;;;;;;10464620;28;20393;-64
2022/09/03 22:25:39;;;;;;;2.97;1.60;;;22.30;66.70;;;;;;10462164;28;20052;-64
2022/09/03 22:31:29;;;;;;;1.73;1.63;;;22.30;66.70;;;;;;10458015;28;20033;-63
2022/09/03 22:37:03;;;;;;;1.50;1.40;;;22.20;66.70;;;;;;10505164;28;20044;-62
2022/09/03 22:43:03;;;;;;;1.55;1.33;;;22.20;66.70;;;;;;10502387;28;20039;-62
2022/09/03 22:49:30;;;;;;;1.60;1.50;;;22.20;66.70;;;;;;10490806;28;20135;-64
2022/09/03 22:55:13;;;;;;;2.22;1.60;;;22.10;66.60;;;;;;10421202;28;20128;-63
2022/09/03 23:06:12;;;;;;;2.45;1.50;;;22.00;66.60;;;;;;10514530;22;20086;-63
2022/09/03 23:11:49;;;;;;;1.85;1.50;;;22.00;66.60;;;;;;10503957;28;20033;-62
2022/09/03 23:17:19;;;;;;;1.73;1.63;;;22.00;66.60;;;;;;10486892;28;20052;-63
2022/09/03 23:22:43;;;;;;;2.10;1.70;;;21.90;66.60;;;;;;10501913;28;20024;-63
2022/09/03 23:28:25;;;;;;;1.60;1.50;;;21.90;66.60;;;;;;10500815;28;20036;-63
2022/09/03 23:33:45;;;;;;;2.40;1.58;;;21.90;66.60;;;;;;10506189;28;20032;-63
2022/09/03 23:39:30;;;;;;;2.25;1.58;;;21.90;66.70;;;;;;10503455;28;20443;-63
2022/09/03 23:45:03;;;;;;;1.80;1.70;;;21.80;66.60;;;;;;10500982;28;20048;-63
2022/09/03 23:50:56;;;;;;;1.40;1.30;;;21.80;66.50;;;;;;10504259;28;20028;-63
2022/09/03 23:56:46;;;;;;;1.67;1.40;;;21.80;66.50;;;;;;10500757;28;20116;-64
